createdAt,value
2019-05-22T00:00:42.504Z,11.80
2019-05-22T00:03:15.824Z,11.80
2019-05-22T00:05:46.652Z,11.80
2019-05-22T00:08:17.504Z,11.80
2019-05-22T00:10:47.084Z,11.80
2019-05-22T00:13:18.266Z,11.80
2019-05-22T00:15:49.347Z,11.80
2019-05-22T00:18:17.919Z,11.80
2019-05-22T00:20:48.914Z,11.80
2019-05-22T00:23:18.759Z,11.80
2019-05-22T00:25:48.321Z,11.80
2019-05-22T00:28:16.788Z,11.70
2019-05-22T00:30:47.603Z,11.80
2019-05-22T00:33:16.826Z,11.70
2019-05-22T00:35:45.496Z,11.80
2019-05-22T00:38:15.027Z,11.70
2019-05-22T00:40:45.059Z,11.70
2019-05-22T00:43:16.985Z,11.70
2019-05-22T00:45:46.506Z,11.70
2019-05-22T00:48:16.572Z,11.70
2019-05-22T00:50:53.743Z,11.70
2019-05-22T00:53:42.707Z,11.70
2019-05-22T00:56:29.096Z,11.70
2019-05-22T00:59:16.071Z,11.70
2019-05-22T01:01:46.138Z,11.70
2019-05-22T01:04:16.258Z,11.70
2019-05-22T01:06:47.163Z,11.70
2019-05-22T01:09:20.035Z,11.70
2019-05-22T01:11:48.440Z,11.70
2019-05-22T01:14:18.899Z,11.70
2019-05-22T01:16:48.951Z,11.70
2019-05-22T01:19:19.376Z,11.70
2019-05-22T01:21:48.798Z,11.70
2019-05-22T01:24:17.359Z,11.70
2019-05-22T01:26:48.345Z,11.70
2019-05-22T01:29:16.859Z,11.70
2019-05-22T01:31:47.219Z,11.70
2019-05-22T01:34:20.227Z,11.70
2019-05-22T01:36:50.425Z,11.70
2019-05-22T01:39:23.713Z,11.70
2019-05-22T01:41:54.335Z,11.70
2019-05-22T01:44:24.771Z,11.70
2019-05-22T01:46:55.560Z,11.70
2019-05-22T01:49:25.486Z,11.70
2019-05-22T01:51:56.050Z,11.70
2019-05-22T01:54:25.804Z,11.70
2019-05-22T01:56:56.289Z,11.70
2019-05-22T01:59:26.572Z,11.70
2019-05-22T02:01:57.332Z,11.60
2019-05-22T02:04:26.752Z,11.60
2019-05-22T02:06:57.349Z,11.60
2019-05-22T02:09:31.499Z,11.60
2019-05-22T02:12:16.630Z,11.60
2019-05-22T02:14:48.163Z,11.50
2019-05-22T02:17:19.855Z,11.50
2019-05-22T02:19:50.143Z,11.50
2019-05-22T02:22:18.922Z,11.50
2019-05-22T02:24:50.617Z,11.50
2019-05-22T02:27:19.996Z,11.50
2019-05-22T02:29:49.224Z,11.40
2019-05-22T02:32:21.275Z,11.40
2019-05-22T02:34:50.051Z,11.40
2019-05-22T02:37:19.691Z,11.40
2019-05-22T02:39:48.849Z,11.40
2019-05-22T02:42:26.104Z,11.40
2019-05-22T02:44:55.451Z,11.40
2019-05-22T02:47:25.038Z,11.40
2019-05-22T02:49:55.817Z,11.40
2019-05-22T02:52:25.291Z,11.40
2019-05-22T02:54:55.175Z,11.40
2019-05-22T02:57:26.326Z,11.40
2019-05-22T02:59:55.527Z,11.40
2019-05-22T03:02:24.327Z,11.40
2019-05-22T03:04:59.586Z,11.40
2019-05-22T03:07:30.215Z,11.40
2019-05-22T03:10:01.036Z,11.40
2019-05-22T03:12:31.191Z,11.40
2019-05-22T03:15:02.134Z,11.40
2019-05-22T03:17:31.363Z,11.40
2019-05-22T03:20:06.373Z,11.40
2019-05-22T03:22:40.756Z,11.40
2019-05-22T03:25:15.211Z,11.40
2019-05-22T03:27:46.782Z,11.40
2019-05-22T03:30:31.083Z,11.40
2019-05-22T03:33:02.101Z,11.40
2019-05-22T03:35:33.273Z,11.40
2019-05-22T03:38:03.623Z,11.40
2019-05-22T03:40:34.940Z,11.40
2019-05-22T03:43:09.671Z,11.40
2019-05-22T03:45:39.907Z,11.40
2019-05-22T03:48:08.593Z,11.40
2019-05-22T03:50:37.595Z,11.40
2019-05-22T03:53:17.946Z,11.40
2019-05-22T03:55:48.479Z,11.40
2019-05-22T03:58:18.191Z,11.40
2019-05-22T04:00:47.445Z,11.40
2019-05-22T04:03:17.604Z,11.40
2019-05-22T04:05:47.341Z,11.50
2019-05-22T04:08:17.351Z,11.40
2019-05-22T04:10:59.990Z,11.50
2019-05-22T04:13:28.825Z,11.50
2019-05-22T04:15:58.166Z,11.50
2019-05-22T04:18:26.902Z,11.50
2019-05-22T04:20:57.056Z,11.50
2019-05-22T04:23:25.677Z,11.50
2019-05-22T04:25:54.955Z,11.50
2019-05-22T04:28:23.609Z,11.60
2019-05-22T04:30:54.335Z,11.60
2019-05-22T04:33:23.434Z,11.60
2019-05-22T04:35:53.528Z,11.60
2019-05-22T04:38:23.040Z,11.60
2019-05-22T04:40:53.195Z,11.60
2019-05-22T04:43:23.959Z,11.60
2019-05-22T04:45:53.722Z,11.70
2019-05-22T04:48:22.470Z,11.70
2019-05-22T04:50:51.847Z,11.70
2019-05-22T04:53:20.474Z,11.70
2019-05-22T04:55:49.749Z,11.70
2019-05-22T04:58:21.222Z,11.70
2019-05-22T05:00:50.258Z,11.70
2019-05-22T05:03:20.734Z,11.80
2019-05-22T05:05:50.941Z,11.80
2019-05-22T05:08:19.602Z,11.80
2019-05-22T05:10:50.055Z,11.80
2019-05-22T05:13:19.171Z,11.80
2019-05-22T05:15:47.870Z,11.80
2019-05-22T05:18:17.243Z,11.80
2019-05-22T05:20:45.677Z,11.90
2019-05-22T05:23:14.162Z,11.90
2019-05-22T05:25:44.204Z,12.00
2019-05-22T05:28:13.903Z,12.00
2019-05-22T05:30:42.762Z,12.00
2019-05-22T05:33:11.619Z,12.10
2019-05-22T05:35:40.181Z,12.10
2019-05-22T05:38:10.793Z,12.20
2019-05-22T05:40:42.478Z,12.20
2019-05-22T05:43:12.227Z,12.20
2019-05-22T05:45:42.765Z,12.30
2019-05-22T05:48:13.482Z,12.40
2019-05-22T05:51:01.416Z,12.40
2019-05-22T05:53:32.095Z,12.50
2019-05-22T05:56:07.237Z,12.50
2019-05-22T05:58:35.827Z,12.60
2019-05-22T06:01:09.294Z,12.70
2019-05-22T06:03:40.307Z,12.70
2019-05-22T06:06:25.019Z,12.70
2019-05-22T06:08:54.827Z,12.60
2019-05-22T06:11:32.884Z,12.60
2019-05-22T06:14:03.886Z,12.60
2019-05-22T06:16:50.989Z,12.60
2019-05-22T06:19:20.649Z,12.60
2019-05-22T06:21:50.958Z,12.60
2019-05-22T06:24:35.331Z,12.60
2019-05-22T06:27:15.794Z,12.60
2019-05-22T06:30:00.627Z,12.60
2019-05-22T06:32:38.366Z,12.70
2019-05-22T06:35:09.250Z,12.80
2019-05-22T06:38:07.521Z,13.00
2019-05-22T06:40:36.018Z,13.10
2019-05-22T06:43:41.051Z,13.10
2019-05-22T06:46:10.095Z,13.00
2019-05-22T06:48:38.671Z,13.00
2019-05-22T06:51:19.198Z,13.00
2019-05-22T06:53:37.355Z,13.00
2019-05-22T06:56:05.962Z,12.90
2019-05-22T06:58:34.617Z,12.90
2019-05-22T07:01:03.262Z,12.90
2019-05-22T07:03:32.115Z,12.90
2019-05-22T07:06:02.766Z,12.80
2019-05-22T07:08:32.151Z,12.80
2019-05-22T07:11:02.810Z,12.80
2019-05-22T07:13:31.451Z,12.90
2019-05-22T07:16:02.375Z,13.00
2019-05-22T07:18:31.803Z,13.10
2019-05-22T07:21:00.863Z,13.20
2019-05-22T07:23:31.594Z,13.30
2019-05-22T07:26:01.435Z,13.30
2019-05-22T07:28:31.204Z,13.40
2019-05-22T07:31:00.122Z,13.40
2019-05-22T07:33:28.767Z,13.40
2019-05-22T07:36:09.228Z,13.40
2019-05-22T07:38:27.685Z,13.40
2019-05-22T07:40:56.457Z,13.40
2019-05-22T07:43:25.560Z,13.50
2019-05-22T07:45:55.285Z,13.50
2019-05-22T07:48:25.306Z,13.60
2019-05-22T07:50:55.411Z,13.70
2019-05-22T07:53:25.451Z,13.80
2019-05-22T07:55:54.674Z,14.00
2019-05-22T07:58:24.064Z,14.20
2019-05-22T08:00:54.771Z,14.40
2019-05-22T08:03:25.108Z,14.70
2019-05-22T08:05:56.281Z,14.90
2019-05-22T08:08:26.452Z,15.20
2019-05-22T08:10:56.668Z,15.40
2019-05-22T08:13:26.387Z,15.50
2019-05-22T08:15:54.796Z,15.60
2019-05-22T08:18:24.049Z,15.60
2019-05-22T08:20:52.686Z,15.60
2019-05-22T08:23:22.560Z,15.70
2019-05-22T08:25:51.879Z,15.70
2019-05-22T08:28:21.101Z,15.70
2019-05-22T08:30:50.161Z,15.70
2019-05-22T08:33:19.779Z,15.80
2019-05-22T08:35:48.499Z,16.00
2019-05-22T08:38:18.538Z,16.00
2019-05-22T08:40:47.463Z,16.10
2019-05-22T08:43:16.135Z,16.10
2019-05-22T08:45:44.938Z,16.10
2019-05-22T08:48:14.284Z,15.90
2019-05-22T08:50:44.893Z,15.60
2019-05-22T08:53:15.729Z,15.40
2019-05-22T08:55:45.367Z,15.20
2019-05-22T08:58:15.574Z,15.10
2019-05-22T09:00:46.915Z,15.00
2019-05-22T09:03:16.338Z,14.90
2019-05-22T09:05:46.514Z,14.70
2019-05-22T09:08:15.229Z,14.60
2019-05-22T09:10:44.007Z,14.50
2019-05-22T09:13:12.518Z,14.60
2019-05-22T09:15:41.256Z,14.60
2019-05-22T09:18:10.154Z,14.70
2019-05-22T09:20:48.653Z,14.90
2019-05-22T09:23:11.888Z,15.10
2019-05-22T09:25:40.875Z,15.00
2019-05-22T09:28:09.825Z,15.70
2019-05-22T09:30:38.524Z,16.20
2019-05-22T09:33:08.792Z,16.60
2019-05-22T09:35:37.218Z,16.80
2019-05-22T09:38:05.915Z,17.00
2019-05-22T09:40:34.800Z,17.10
2019-05-22T09:43:05.149Z,17.20
2019-05-22T09:45:35.274Z,17.20
2019-05-22T09:48:05.852Z,17.30
2019-05-22T09:50:34.262Z,17.40
2019-05-22T09:53:03.236Z,17.40
2019-05-22T09:55:31.770Z,17.40
2019-05-22T09:58:00.254Z,17.50
2019-05-22T10:00:28.709Z,17.50
2019-05-22T10:02:57.229Z,17.50
2019-05-22T10:05:26.053Z,17.40
2019-05-22T10:08:01.417Z,17.30
2019-05-22T10:10:26.951Z,17.20
2019-05-22T10:12:55.929Z,17.20
2019-05-22T10:15:26.396Z,17.30
2019-05-22T10:17:55.074Z,17.60
2019-05-22T10:20:24.039Z,17.90
2019-05-22T10:22:52.574Z,18.10
2019-05-22T10:25:21.626Z,18.20
2019-05-22T10:27:50.744Z,18.40
2019-05-22T10:30:23.053Z,18.30
2019-05-22T10:32:51.633Z,18.20
2019-05-22T10:35:26.877Z,18.00
2019-05-22T10:37:56.542Z,17.90
2019-05-22T10:40:25.318Z,17.80
2019-05-22T10:42:54.214Z,17.70
2019-05-22T10:45:22.879Z,17.70
2019-05-22T10:47:51.510Z,17.80
2019-05-22T10:50:20.592Z,17.90
2019-05-22T10:52:53.922Z,18.00
2019-05-22T10:55:20.773Z,18.00
2019-05-22T10:57:49.481Z,18.10
2019-05-22T11:00:19.081Z,18.30
2019-05-22T11:02:47.922Z,18.30
2019-05-22T11:05:18.558Z,18.10
2019-05-22T11:07:47.425Z,18.00
2019-05-22T11:10:17.767Z,17.80
2019-05-22T11:12:46.363Z,17.80
2019-05-22T11:15:15.307Z,18.00
2019-05-22T11:17:44.982Z,18.30
2019-05-22T11:20:14.375Z,18.70
2019-05-22T11:22:43.414Z,19.00
2019-05-22T11:25:12.941Z,19.30
2019-05-22T11:27:41.851Z,19.50
2019-05-22T11:30:16.255Z,19.70
2019-05-22T11:32:45.491Z,19.80
2019-05-22T11:35:14.561Z,19.80
2019-05-22T11:37:43.395Z,19.80
2019-05-22T11:40:12.354Z,19.70
2019-05-22T11:42:41.607Z,19.60
2019-05-22T11:45:11.988Z,19.70
2019-05-22T11:47:41.847Z,19.80
2019-05-22T11:50:12.570Z,19.90
2019-05-22T11:52:42.031Z,20.00
2019-05-22T11:55:13.000Z,20.00
2019-05-22T11:57:43.475Z,20.10
2019-05-22T12:00:13.890Z,20.00
2019-05-22T12:02:45.185Z,19.90
2019-05-22T12:05:15.630Z,19.70
2019-05-22T12:07:46.073Z,19.50
2019-05-22T12:10:15.697Z,19.40
2019-05-22T12:12:45.220Z,19.40
2019-05-22T12:15:14.916Z,19.40
2019-05-22T12:17:45.120Z,19.40
2019-05-22T12:20:14.383Z,19.40
2019-05-22T12:22:43.372Z,19.30
2019-05-22T12:25:13.465Z,19.30
2019-05-22T12:27:42.264Z,19.40
2019-05-22T12:30:13.319Z,19.50
2019-05-22T12:32:42.093Z,19.60
2019-05-22T12:35:13.884Z,19.60
2019-05-22T12:37:42.990Z,19.60
2019-05-22T12:40:15.680Z,19.80
2019-05-22T12:42:45.339Z,20.00
2019-05-22T12:45:15.381Z,20.20
2019-05-22T12:47:44.237Z,20.40
2019-05-22T12:50:15.772Z,20.60
2019-05-22T12:52:47.546Z,20.70
2019-05-22T12:55:16.933Z,20.70
2019-05-22T12:57:46.159Z,20.50
2019-05-22T13:00:17.391Z,20.30
2019-05-22T13:02:46.223Z,20.10
2019-05-22T13:05:16.058Z,20.20
2019-05-22T13:07:45.239Z,20.20
2019-05-22T13:10:15.504Z,20.00
2019-05-22T13:12:44.814Z,19.80
2019-05-22T13:15:13.583Z,19.80
2019-05-22T13:17:42.887Z,19.90
2019-05-22T13:20:13.819Z,20.10
2019-05-22T13:22:47.696Z,20.30
2019-05-22T13:25:19.846Z,20.40
2019-05-22T13:27:51.002Z,20.20
2019-05-22T13:30:22.989Z,20.00
2019-05-22T13:32:52.670Z,19.80
2019-05-22T13:35:23.216Z,19.50
2019-05-22T13:37:52.044Z,19.30
2019-05-22T13:40:27.543Z,19.20
2019-05-22T13:42:52.750Z,19.20
2019-05-22T13:45:29.069Z,19.40
2019-05-22T13:47:52.437Z,19.70
2019-05-22T13:50:21.588Z,19.80
2019-05-22T13:52:51.199Z,19.90
2019-05-22T13:55:20.537Z,20.00
2019-05-22T13:57:50.221Z,20.00
2019-05-22T14:00:21.726Z,20.10
2019-05-22T14:02:50.783Z,20.20
2019-05-22T14:05:19.980Z,20.20
2019-05-22T14:07:48.683Z,20.20
2019-05-22T14:10:18.111Z,20.20
2019-05-22T14:12:46.865Z,20.30
2019-05-22T14:15:16.007Z,20.40
2019-05-22T14:17:44.439Z,20.60
2019-05-22T14:20:15.326Z,20.70
2019-05-22T14:22:43.898Z,20.80
2019-05-22T14:25:12.635Z,20.80
2019-05-22T14:27:42.039Z,20.90
2019-05-22T14:30:12.842Z,20.90
2019-05-22T14:32:41.648Z,21.00
2019-05-22T14:35:10.447Z,21.00
2019-05-22T14:37:39.848Z,21.00
2019-05-22T14:40:08.499Z,21.40
2019-05-22T14:42:37.630Z,21.90
2019-05-22T14:45:07.487Z,22.50
2019-05-22T14:47:36.571Z,23.00
2019-05-22T14:50:09.318Z,23.50
2019-05-22T14:52:38.129Z,23.90
2019-05-22T14:55:07.467Z,24.00
2019-05-22T14:57:35.937Z,24.10
2019-05-22T15:00:07.362Z,24.10
2019-05-22T15:02:36.018Z,24.10
2019-05-22T15:05:08.234Z,24.10
2019-05-22T15:07:37.123Z,24.10
2019-05-22T15:10:10.359Z,24.20
2019-05-22T15:12:39.066Z,24.30
2019-05-22T15:15:09.204Z,24.30
2019-05-22T15:17:37.602Z,24.30
2019-05-22T15:20:11.137Z,24.10
2019-05-22T15:22:39.720Z,23.40
2019-05-22T15:25:08.398Z,22.50
2019-05-22T15:27:37.314Z,21.70
2019-05-22T15:30:09.451Z,21.10
2019-05-22T15:32:37.968Z,20.70
2019-05-22T15:35:07.936Z,20.50
2019-05-22T15:37:37.363Z,20.40
2019-05-22T15:40:07.970Z,20.40
2019-05-22T15:42:41.978Z,20.50
2019-05-22T15:45:19.716Z,20.80
2019-05-22T15:47:55.337Z,21.00
2019-05-22T15:50:26.595Z,21.30
2019-05-22T15:53:00.264Z,21.50
2019-05-22T15:55:31.080Z,21.80
2019-05-22T15:58:00.502Z,22.20
2019-05-22T16:00:34.233Z,22.20
2019-05-22T16:03:12.425Z,22.30
2019-05-22T16:05:41.606Z,22.30
2019-05-22T16:08:10.534Z,22.00
2019-05-22T16:10:41.038Z,22.30
2019-05-22T16:13:12.550Z,23.00
2019-05-22T16:15:43.899Z,23.70
2019-05-22T16:18:13.715Z,24.00
2019-05-22T16:20:43.528Z,23.90
2019-05-22T16:23:12.571Z,23.60
2019-05-22T16:25:42.015Z,23.60
2019-05-22T16:28:12.899Z,24.00
2019-05-22T16:30:43.003Z,24.50
2019-05-22T16:33:12.814Z,24.80
2019-05-22T16:35:41.752Z,24.60
2019-05-22T16:38:11.542Z,24.00
2019-05-22T16:40:41.589Z,23.40
2019-05-22T16:43:10.393Z,22.90
2019-05-22T16:45:40.006Z,22.40
2019-05-22T16:48:10.286Z,21.90
2019-05-22T16:50:39.702Z,21.60
2019-05-22T16:53:10.627Z,21.70
2019-05-22T16:55:40.568Z,21.70
2019-05-22T16:58:09.789Z,21.40
2019-05-22T17:00:39.003Z,21.10
2019-05-22T17:03:07.558Z,20.80
2019-05-22T17:05:36.310Z,20.60
2019-05-22T17:08:05.772Z,20.50
2019-05-22T17:10:34.575Z,20.60
2019-05-22T17:13:03.891Z,20.70
2019-05-22T17:15:34.129Z,21.10
2019-05-22T17:18:02.671Z,21.40
2019-05-22T17:20:32.139Z,21.40
2019-05-22T17:23:00.766Z,21.20
2019-05-22T17:25:30.148Z,21.30
2019-05-22T17:27:58.971Z,21.40
2019-05-22T17:30:28.382Z,21.40
2019-05-22T17:32:58.322Z,21.20
2019-05-22T17:35:26.749Z,21.10
2019-05-22T17:37:55.551Z,21.00
2019-05-22T17:40:24.320Z,20.80
2019-05-22T17:42:53.111Z,20.80
2019-05-22T17:45:25.520Z,21.30
2019-05-22T17:47:54.858Z,22.20
2019-05-22T17:50:27.190Z,23.00
2019-05-22T17:52:55.628Z,23.70
2019-05-22T17:55:24.396Z,24.40
2019-05-22T17:57:52.999Z,24.90
2019-05-22T18:00:26.568Z,25.30
2019-05-22T18:02:55.408Z,25.80
2019-05-22T18:05:25.587Z,26.00
2019-05-22T18:07:54.128Z,26.10
2019-05-22T18:10:23.239Z,26.10
2019-05-22T18:12:51.809Z,25.90
2019-05-22T18:15:20.275Z,25.50
2019-05-22T18:17:49.037Z,25.10
2019-05-22T18:20:19.766Z,24.20
2019-05-22T18:22:48.306Z,23.10
2019-05-22T18:25:17.194Z,22.10
2019-05-22T18:27:47.214Z,21.10
2019-05-22T18:30:16.254Z,20.20
2019-05-22T18:32:44.773Z,19.40
2019-05-22T18:35:14.057Z,18.80
2019-05-22T18:37:42.447Z,18.30
2019-05-22T18:40:11.558Z,17.80
2019-05-22T18:42:40.101Z,17.40
2019-05-22T18:45:08.840Z,17.00
2019-05-22T18:47:37.263Z,16.60
2019-05-22T18:50:07.309Z,16.30
2019-05-22T18:52:41.052Z,15.90
2019-05-22T18:55:07.098Z,15.60
2019-05-22T18:57:36.433Z,15.30
2019-05-22T19:00:07.908Z,15.00
2019-05-22T19:02:36.757Z,14.80
2019-05-22T19:05:06.708Z,14.50
2019-05-22T19:07:35.431Z,14.20
2019-05-22T19:10:06.071Z,13.90
2019-05-22T19:12:36.004Z,13.70
2019-05-22T19:15:06.471Z,13.50
2019-05-22T19:17:35.435Z,13.30
2019-05-22T19:20:07.255Z,13.10
2019-05-22T19:22:36.116Z,12.90
2019-05-22T19:25:05.499Z,12.80
2019-05-22T19:27:34.259Z,12.60
2019-05-22T19:30:03.200Z,12.50
2019-05-22T19:32:31.771Z,12.30
2019-05-22T19:35:00.240Z,12.10
2019-05-22T19:37:29.382Z,12.00
2019-05-22T19:39:57.942Z,11.90
2019-05-22T19:42:26.404Z,11.80
2019-05-22T19:44:54.834Z,11.70
2019-05-22T19:47:26.450Z,11.50
2019-05-22T19:49:55.112Z,11.30
2019-05-22T19:52:40.403Z,11.10
2019-05-22T19:54:56.055Z,10.90
2019-05-22T19:57:24.727Z,10.80
2019-05-22T19:59:55.017Z,10.60
2019-05-22T20:02:24.075Z,10.50
2019-05-22T20:04:53.023Z,10.30
2019-05-22T20:07:21.505Z,10.20
2019-05-22T20:09:50.093Z,10.00
2019-05-22T20:12:18.984Z,9.90
2019-05-22T20:14:47.694Z,9.80
2019-05-22T20:17:16.358Z,9.70
2019-05-22T20:19:44.826Z,9.60
2019-05-22T20:22:14.712Z,9.50
2019-05-22T20:24:43.468Z,9.40
2019-05-22T20:27:12.238Z,9.30
2019-05-22T20:29:40.951Z,9.30
2019-05-22T20:32:13.845Z,9.30
2019-05-22T20:34:42.550Z,9.20
2019-05-22T20:37:11.183Z,9.20
2019-05-22T20:39:39.647Z,9.10
2019-05-22T20:42:09.425Z,9.00
2019-05-22T20:44:39.038Z,9.00
2019-05-22T20:47:08.584Z,8.90
2019-05-22T20:49:38.803Z,8.80
2019-05-22T20:52:10.891Z,8.80
2019-05-22T20:54:39.443Z,8.80
2019-05-22T20:57:08.709Z,8.70
2019-05-22T20:59:38.301Z,8.70
2019-05-22T21:02:08.435Z,8.60
2019-05-22T21:04:38.235Z,8.50
2019-05-22T21:07:08.343Z,8.50
2019-05-22T21:09:37.464Z,8.40
2019-05-22T21:12:06.792Z,8.30
2019-05-22T21:14:37.016Z,8.20
2019-05-22T21:17:06.222Z,8.20
2019-05-22T21:19:35.928Z,8.10
2019-05-22T21:22:06.093Z,8.10
2019-05-22T21:24:36.418Z,8.00
2019-05-22T21:27:07.077Z,7.90
2019-05-22T21:29:35.819Z,7.80
2019-05-22T21:32:05.617Z,7.80
2019-05-22T21:34:34.357Z,7.80
2019-05-22T21:37:05.068Z,7.70
2019-05-22T21:39:33.897Z,7.60
2019-05-22T21:42:02.360Z,7.60
2019-05-22T21:44:31.592Z,7.50
2019-05-22T21:47:00.846Z,7.50
2019-05-22T21:49:29.724Z,7.40
2019-05-22T21:51:58.256Z,7.40
2019-05-22T21:54:26.843Z,7.40
2019-05-22T21:56:55.313Z,7.30
2019-05-22T21:59:23.770Z,7.20
2019-05-22T22:01:53.899Z,7.20
2019-05-22T22:04:26.552Z,7.20
2019-05-22T22:06:55.592Z,7.20
2019-05-22T22:09:25.637Z,7.20
2019-05-22T22:11:55.278Z,7.10
2019-05-22T22:14:24.789Z,7.10
2019-05-22T22:16:55.104Z,7.00
2019-05-22T22:19:23.814Z,7.00
2019-05-22T22:21:52.482Z,6.90
2019-05-22T22:24:21.357Z,6.90
2019-05-22T22:26:49.949Z,6.90
2019-05-22T22:29:19.209Z,6.80
2019-05-22T22:31:48.302Z,6.80
2019-05-22T22:34:20.043Z,6.70
2019-05-22T22:36:49.182Z,6.70
2019-05-22T22:39:19.242Z,6.70
2019-05-22T22:41:47.898Z,6.60
2019-05-22T22:44:16.404Z,6.60
2019-05-22T22:46:55.871Z,6.50
2019-05-22T22:49:27.688Z,6.50
2019-05-22T22:51:57.435Z,6.40
2019-05-22T22:54:26.517Z,6.40
2019-05-22T22:56:55.266Z,6.40
2019-05-22T22:59:24.375Z,6.40
2019-05-22T23:01:55.075Z,6.30
2019-05-22T23:04:26.766Z,6.30
2019-05-22T23:06:58.323Z,6.20
2019-05-22T23:09:27.630Z,6.20
2019-05-22T23:11:57.764Z,6.20
2019-05-22T23:14:27.459Z,6.20
2019-05-22T23:16:56.124Z,6.10
2019-05-22T23:19:33.487Z,6.10
2019-05-22T23:22:01.483Z,6.00
2019-05-22T23:24:30.834Z,6.00
2019-05-22T23:26:59.583Z,6.00
2019-05-22T23:29:28.262Z,6.00
2019-05-22T23:31:56.907Z,5.90
2019-05-22T23:34:25.662Z,5.90
2019-05-22T23:36:55.155Z,5.90
2019-05-22T23:39:23.892Z,5.90
2019-05-22T23:41:56.259Z,5.80
2019-05-22T23:44:25.032Z,5.80
2019-05-22T23:46:53.588Z,5.80
2019-05-22T23:49:22.094Z,5.80
2019-05-22T23:51:50.764Z,5.70
2019-05-22T23:54:19.774Z,5.70
2019-05-22T23:56:49.473Z,5.80
2019-05-22T23:59:17.876Z,5.70
